sensor_id;sensor_type;location;lat;lon;timestamp;P1;durP1;ratioP1;P2;durP2;ratioP2
1328;SDS011;658;48.820;9.354;2023-06-14T00:00:15;5.27;;;4.87;;
1328;SDS011;658;48.820;9.354;2023-06-14T00:04:16;4.57;;;4.27;;
1328;SDS011;658;48.820;9.354;2023-06-14T00:08:17;4.27;;;3.97;;
1328;SDS011;658;48.820;9.354;2023-06-14T00:12:22;4.77;;;4.47;;
1328;SDS011;658;48.820;9.354;2023-06-14T00:16:24;4.83;;;4.53;;
1328;SDS011;658;48.820;9.354;2023-06-14T00:20:24;5.00;;;4.60;;
1328;SDS011;658;48.820;9.354;2023-06-14T00:24:26;5.17;;;4.77;;
1328;SDS011;658;48.820;9.354;2023-06-14T00:28:26;5.00;;;4.70;;
1328;SDS011;658;48.820;9.354;2023-06-14T00:32:27;4.53;;;4.23;;
1328;SDS011;658;48.820;9.354;2023-06-14T00:36:28;5.17;;;4.77;;
1328;SDS011;658;48.820;9.354;2023-06-14T00:40:28;5.00;;;4.60;;
1328;SDS011;658;48.820;9.354;2023-06-14T00:44:29;5.17;;;4.77;;
1328;SDS011;658;48.820;9.354;2023-06-14T00:48:29;5.63;;;5.23;;
1328;SDS011;658;48.820;9.354;2023-06-14T00:52:31;4.50;;;4.10;;
1328;SDS011;658;48.820;9.354;2023-06-14T00:56:32;5.27;;;4.60;;
1328;SDS011;658;48.820;9.354;2023-06-14T01:00:33;5.80;;;5.30;;
1328;SDS011;658;48.820;9.354;2023-06-14T01:04:36;4.73;;;4.37;;
1328;SDS011;658;48.820;9.354;2023-06-14T01:08:50;4.70;;;4.40;;
1328;SDS011;658;48.820;9.354;2023-06-14T01:13:13;4.90;;;4.50;;
1328;SDS011;658;48.820;9.354;2023-06-14T01:17:21;4.87;;;4.57;;
1328;SDS011;658;48.820;9.354;2023-06-14T01:21:23;4.63;;;4.33;;
1328;SDS011;658;48.820;9.354;2023-06-14T01:25:25;6.13;;;5.00;;
1328;SDS011;658;48.820;9.354;2023-06-14T01:29:26;5.33;;;4.93;;
1328;SDS011;658;48.820;9.354;2023-06-14T01:33:32;5.30;;;5.00;;
1328;SDS011;658;48.820;9.354;2023-06-14T01:37:35;4.70;;;4.40;;
1328;SDS011;658;48.820;9.354;2023-06-14T01:41:36;5.33;;;4.83;;
1328;SDS011;658;48.820;9.354;2023-06-14T01:45:37;5.10;;;4.70;;
1328;SDS011;658;48.820;9.354;2023-06-14T01:49:44;4.70;;;4.40;;
1328;SDS011;658;48.820;9.354;2023-06-14T01:53:46;5.00;;;4.60;;
1328;SDS011;658;48.820;9.354;2023-06-14T01:57:48;5.00;;;4.60;;
1328;SDS011;658;48.820;9.354;2023-06-14T02:01:49;6.20;;;4.70;;
1328;SDS011;658;48.820;9.354;2023-06-14T02:05:52;4.20;;;4.00;;
1328;SDS011;658;48.820;9.354;2023-06-14T02:09:52;4.60;;;4.30;;
1328;SDS011;658;48.820;9.354;2023-06-14T02:13:53;5.20;;;4.80;;
1328;SDS011;658;48.820;9.354;2023-06-14T02:17:55;4.87;;;4.47;;
1328;SDS011;658;48.820;9.354;2023-06-14T02:21:55;5.53;;;5.00;;
1328;SDS011;658;48.820;9.354;2023-06-14T02:25:56;4.50;;;4.10;;
1328;SDS011;658;48.820;9.354;2023-06-14T02:29:56;4.70;;;4.40;;
1328;SDS011;658;48.820;9.354;2023-06-14T02:33:57;5.17;;;4.77;;
1328;SDS011;658;48.820;9.354;2023-06-14T02:37:57;4.93;;;4.63;;
1328;SDS011;658;48.820;9.354;2023-06-14T02:41:58;5.17;;;4.70;;
1328;SDS011;658;48.820;9.354;2023-06-14T02:45:59;5.40;;;5.00;;
1328;SDS011;658;48.820;9.354;2023-06-14T02:49:59;4.97;;;4.57;;
1328;SDS011;658;48.820;9.354;2023-06-14T02:54:02;4.80;;;4.40;;
1328;SDS011;658;48.820;9.354;2023-06-14T02:58:05;4.93;;;4.53;;
1328;SDS011;658;48.820;9.354;2023-06-14T03:02:06;4.57;;;4.27;;
1328;SDS011;658;48.820;9.354;2023-06-14T03:06:09;4.87;;;4.47;;
1328;SDS011;658;48.820;9.354;2023-06-14T03:10:14;5.60;;;5.20;;
1328;SDS011;658;48.820;9.354;2023-06-14T03:14:17;5.20;;;4.80;;
1328;SDS011;658;48.820;9.354;2023-06-14T03:18:21;5.20;;;4.70;;
1328;SDS011;658;48.820;9.354;2023-06-14T03:22:22;5.33;;;4.93;;
1328;SDS011;658;48.820;9.354;2023-06-14T03:26:25;4.57;;;4.27;;
1328;SDS011;658;48.820;9.354;2023-06-14T03:30:26;5.20;;;4.80;;
1328;SDS011;658;48.820;9.354;2023-06-14T03:34:26;5.43;;;5.03;;
1328;SDS011;658;48.820;9.354;2023-06-14T03:38:30;5.97;;;5.00;;
1328;SDS011;658;48.820;9.354;2023-06-14T03:42:30;5.83;;;4.90;;
1328;SDS011;658;48.820;9.354;2023-06-14T03:46:31;4.77;;;4.47;;
1328;SDS011;658;48.820;9.354;2023-06-14T03:50:32;5.00;;;4.60;;
1328;SDS011;658;48.820;9.354;2023-06-14T03:54:37;5.30;;;5.00;;
1328;SDS011;658;48.820;9.354;2023-06-14T03:58:38;5.27;;;4.77;;
1328;SDS011;658;48.820;9.354;2023-06-14T04:02:39;5.03;;;4.63;;
1328;SDS011;658;48.820;9.354;2023-06-14T04:06:39;5.77;;;5.17;;
1328;SDS011;658;48.820;9.354;2023-06-14T04:10:42;5.33;;;4.93;;
1328;SDS011;658;48.820;9.354;2023-06-14T04:14:42;6.13;;;5.50;;
1328;SDS011;658;48.820;9.354;2023-06-14T04:18:45;5.43;;;5.03;;
1328;SDS011;658;48.820;9.354;2023-06-14T04:22:46;5.50;;;5.00;;
1328;SDS011;658;48.820;9.354;2023-06-14T04:26:48;5.50;;;5.10;;
1328;SDS011;658;48.820;9.354;2023-06-14T04:30:49;6.20;;;5.60;;
1328;SDS011;658;48.820;9.354;2023-06-14T04:34:50;5.67;;;5.17;;
1328;SDS011;658;48.820;9.354;2023-06-14T04:38:53;5.40;;;4.90;;
1328;SDS011;658;48.820;9.354;2023-06-14T04:42:54;5.90;;;5.20;;
1328;SDS011;658;48.820;9.354;2023-06-14T04:46:57;4.70;;;4.40;;
1328;SDS011;658;48.820;9.354;2023-06-14T04:50:58;5.33;;;4.93;;
1328;SDS011;658;48.820;9.354;2023-06-14T04:54:59;4.90;;;4.40;;
1328;SDS011;658;48.820;9.354;2023-06-14T04:58:59;4.93;;;4.40;;
1328;SDS011;658;48.820;9.354;2023-06-14T05:03:00;4.07;;;3.77;;
1328;SDS011;658;48.820;9.354;2023-06-14T05:07:01;5.00;;;4.50;;
1328;SDS011;658;48.820;9.354;2023-06-14T05:11:02;5.23;;;4.73;;
1328;SDS011;658;48.820;9.354;2023-06-14T05:15:05;4.53;;;4.23;;
1328;SDS011;658;48.820;9.354;2023-06-14T05:19:08;4.73;;;4.40;;
1328;SDS011;658;48.820;9.354;2023-06-14T05:23:12;4.10;;;3.80;;
1328;SDS011;658;48.820;9.354;2023-06-14T05:27:18;5.20;;;4.80;;
1328;SDS011;658;48.820;9.354;2023-06-14T05:31:18;4.90;;;4.47;;
1328;SDS011;658;48.820;9.354;2023-06-14T05:35:19;4.40;;;4.10;;
1328;SDS011;658;48.820;9.354;2023-06-14T05:39:22;4.03;;;3.73;;
1328;SDS011;658;48.820;9.354;2023-06-14T05:43:24;4.37;;;4.03;;
1328;SDS011;658;48.820;9.354;2023-06-14T05:47:24;4.70;;;4.30;;
1328;SDS011;658;48.820;9.354;2023-06-14T05:51:25;4.30;;;3.97;;
1328;SDS011;658;48.820;9.354;2023-06-14T05:55:26;3.80;;;3.50;;
1328;SDS011;658;48.820;9.354;2023-06-14T05:59:27;4.47;;;4.17;;
1328;SDS011;658;48.820;9.354;2023-06-14T06:03:28;3.43;;;3.20;;
1328;SDS011;658;48.820;9.354;2023-06-14T06:07:29;4.20;;;3.90;;
1328;SDS011;658;48.820;9.354;2023-06-14T06:11:30;5.10;;;4.00;;
1328;SDS011;658;48.820;9.354;2023-06-14T06:15:30;3.77;;;3.47;;
1328;SDS011;658;48.820;9.354;2023-06-14T06:19:31;4.13;;;3.83;;
1328;SDS011;658;48.820;9.354;2023-06-14T06:23:31;4.27;;;3.87;;
1328;SDS011;658;48.820;9.354;2023-06-14T06:27:32;3.23;;;3.03;;
1328;SDS011;658;48.820;9.354;2023-06-14T06:46:43;3.57;;;3.30;;
1328;SDS011;658;48.820;9.354;2023-06-14T06:50:58;3.23;;;3.03;;
1328;SDS011;658;48.820;9.354;2023-06-14T06:54:59;7.50;;;3.67;;
1328;SDS011;658;48.820;9.354;2023-06-14T06:59:00;4.33;;;3.13;;
1328;SDS011;658;48.820;9.354;2023-06-14T07:03:01;3.30;;;3.10;;
1328;SDS011;658;48.820;9.354;2023-06-14T07:07:03;3.20;;;3.00;;
1328;SDS011;658;48.820;9.354;2023-06-14T07:11:05;3.33;;;3.00;;
1328;SDS011;658;48.820;9.354;2023-06-14T07:15:09;3.40;;;3.20;;
1328;SDS011;658;48.820;9.354;2023-06-14T07:19:10;3.07;;;2.83;;
1328;SDS011;658;48.820;9.354;2023-06-14T07:23:13;3.40;;;3.20;;
1328;SDS011;658;48.820;9.354;2023-06-14T07:27:14;3.20;;;2.83;;
1328;SDS011;658;48.820;9.354;2023-06-14T07:31:16;2.80;;;2.60;;
1328;SDS011;658;48.820;9.354;2023-06-14T07:35:19;3.40;;;3.10;;
1328;SDS011;658;48.820;9.354;2023-06-14T07:39:19;2.80;;;2.60;;
1328;SDS011;658;48.820;9.354;2023-06-14T07:43:23;2.80;;;2.60;;
1328;SDS011;658;48.820;9.354;2023-06-14T07:47:23;3.60;;;3.37;;
1328;SDS011;658;48.820;9.354;2023-06-14T07:51:25;3.57;;;3.37;;
1328;SDS011;658;48.820;9.354;2023-06-14T07:55:25;3.13;;;2.93;;
1328;SDS011;658;48.820;9.354;2023-06-14T07:59:26;2.93;;;2.73;;
1328;SDS011;658;48.820;9.354;2023-06-14T08:03:27;2.80;;;2.60;;
1328;SDS011;658;48.820;9.354;2023-06-14T08:07:27;2.77;;;2.57;;
1328;SDS011;658;48.820;9.354;2023-06-14T08:11:31;3.27;;;3.07;;
1328;SDS011;658;48.820;9.354;2023-06-14T08:15:31;2.40;;;2.30;;
1328;SDS011;658;48.820;9.354;2023-06-14T08:19:32;2.67;;;2.57;;
1328;SDS011;658;48.820;9.354;2023-06-14T08:23:32;2.80;;;2.60;;
1328;SDS011;658;48.820;9.354;2023-06-14T08:27:33;3.10;;;2.90;;
1328;SDS011;658;48.820;9.354;2023-06-14T08:31:33;2.70;;;2.50;;
1328;SDS011;658;48.820;9.354;2023-06-14T08:35:34;3.10;;;2.90;;
1328;SDS011;658;48.820;9.354;2023-06-14T08:39:39;2.83;;;2.63;;
1328;SDS011;658;48.820;9.354;2023-06-14T08:43:40;2.40;;;2.30;;
1328;SDS011;658;48.820;9.354;2023-06-14T08:47:42;2.77;;;2.57;;
1328;SDS011;658;48.820;9.354;2023-06-14T08:51:45;2.70;;;2.53;;
1328;SDS011;658;48.820;9.354;2023-06-14T08:55:51;2.80;;;2.60;;
1328;SDS011;658;48.820;9.354;2023-06-14T08:59:53;2.80;;;2.60;;
1328;SDS011;658;48.820;9.354;2023-06-14T09:03:54;3.00;;;2.80;;
1328;SDS011;658;48.820;9.354;2023-06-14T09:07:57;2.77;;;2.67;;
1328;SDS011;658;48.820;9.354;2023-06-14T09:12:00;2.60;;;2.43;;
1328;SDS011;658;48.820;9.354;2023-06-14T09:16:01;2.60;;;2.50;;
1328;SDS011;658;48.820;9.354;2023-06-14T09:20:02;2.97;;;2.77;;
1328;SDS011;658;48.820;9.354;2023-06-14T09:24:13;2.30;;;2.20;;
1328;SDS011;658;48.820;9.354;2023-06-14T09:28:14;2.43;;;2.27;;
1328;SDS011;658;48.820;9.354;2023-06-14T09:32:17;2.70;;;2.57;;
1328;SDS011;658;48.820;9.354;2023-06-14T09:36:21;3.10;;;2.90;;
1328;SDS011;658;48.820;9.354;2023-06-14T09:40:22;2.20;;;2.10;;
1328;SDS011;658;48.820;9.354;2023-06-14T09:44:23;3.00;;;2.80;;
1328;SDS011;658;48.820;9.354;2023-06-14T09:48:28;2.70;;;2.50;;
1328;SDS011;658;48.820;9.354;2023-06-14T09:52:28;2.40;;;2.30;;
1328;SDS011;658;48.820;9.354;2023-06-14T10:00:37;2.30;;;2.20;;
1328;SDS011;658;48.820;9.354;2023-06-14T10:04:41;3.10;;;2.90;;
1328;SDS011;658;48.820;9.354;2023-06-14T10:08:46;2.40;;;2.30;;
1328;SDS011;658;48.820;9.354;2023-06-14T10:12:48;2.23;;;2.13;;
1328;SDS011;658;48.820;9.354;2023-06-14T10:21:06;2.90;;;2.70;;
1328;SDS011;658;48.820;9.354;2023-06-14T10:25:12;2.80;;;2.60;;
1328;SDS011;658;48.820;9.354;2023-06-14T10:29:13;2.23;;;2.13;;
1328;SDS011;658;48.820;9.354;2023-06-14T10:33:13;2.67;;;2.50;;
1328;SDS011;658;48.820;9.354;2023-06-14T10:37:15;2.33;;;2.20;;
1328;SDS011;658;48.820;9.354;2023-06-14T10:41:16;2.50;;;2.40;;
1328;SDS011;658;48.820;9.354;2023-06-14T10:45:18;2.27;;;2.17;;
1328;SDS011;658;48.820;9.354;2023-06-14T10:49:19;2.30;;;2.20;;
1328;SDS011;658;48.820;9.354;2023-06-14T10:53:24;2.50;;;2.40;;
1328;SDS011;658;48.820;9.354;2023-06-14T10:57:25;2.20;;;2.10;;
1328;SDS011;658;48.820;9.354;2023-06-14T11:01:31;2.40;;;2.30;;
1328;SDS011;658;48.820;9.354;2023-06-14T11:05:50;2.27;;;2.17;;
1328;SDS011;658;48.820;9.354;2023-06-14T11:10:05;2.20;;;2.10;;
1328;SDS011;658;48.820;9.354;2023-06-14T11:14:13;2.40;;;2.20;;
1328;SDS011;658;48.820;9.354;2023-06-14T11:18:13;2.13;;;2.03;;
1328;SDS011;658;48.820;9.354;2023-06-14T11:22:16;2.70;;;2.50;;
1328;SDS011;658;48.820;9.354;2023-06-14T11:26:24;2.20;;;2.10;;
1328;SDS011;658;48.820;9.354;2023-06-14T11:30:35;2.33;;;2.23;;
1328;SDS011;658;48.820;9.354;2023-06-14T11:34:36;2.13;;;2.03;;
1328;SDS011;658;48.820;9.354;2023-06-14T11:38:36;2.40;;;2.30;;
1328;SDS011;658;48.820;9.354;2023-06-14T11:42:37;2.30;;;2.20;;
1328;SDS011;658;48.820;9.354;2023-06-14T11:46:40;2.20;;;2.10;;
1328;SDS011;658;48.820;9.354;2023-06-14T11:50:43;2.30;;;2.20;;
1328;SDS011;658;48.820;9.354;2023-06-14T11:54:43;2.47;;;2.27;;
1328;SDS011;658;48.820;9.354;2023-06-14T11:58:44;2.23;;;2.13;;
1328;SDS011;658;48.820;9.354;2023-06-14T12:02:52;2.10;;;2.00;;
1328;SDS011;658;48.820;9.354;2023-06-14T12:06:56;2.37;;;2.20;;
1328;SDS011;658;48.820;9.354;2023-06-14T12:10:57;1.90;;;1.80;;
1328;SDS011;658;48.820;9.354;2023-06-14T12:14:58;2.30;;;2.20;;
1328;SDS011;658;48.820;9.354;2023-06-14T12:19:14;2.10;;;2.00;;
1328;SDS011;658;48.820;9.354;2023-06-14T12:23:16;1.97;;;1.87;;
1328;SDS011;658;48.820;9.354;2023-06-14T12:27:17;2.30;;;2.20;;
1328;SDS011;658;48.820;9.354;2023-06-14T12:31:21;2.30;;;2.20;;
1328;SDS011;658;48.820;9.354;2023-06-14T12:35:22;2.50;;;2.30;;
1328;SDS011;658;48.820;9.354;2023-06-14T12:39:22;2.23;;;2.13;;
1328;SDS011;658;48.820;9.354;2023-06-14T12:43:24;2.57;;;2.37;;
1328;SDS011;658;48.820;9.354;2023-06-14T12:47:25;1.83;;;1.73;;
1328;SDS011;658;48.820;9.354;2023-06-14T12:51:25;2.10;;;2.00;;
1328;SDS011;658;48.820;9.354;2023-06-14T12:55:26;1.97;;;1.87;;
1328;SDS011;658;48.820;9.354;2023-06-14T12:59:26;2.20;;;2.10;;
1328;SDS011;658;48.820;9.354;2023-06-14T13:03:32;2.53;;;2.43;;
1328;SDS011;658;48.820;9.354;2023-06-14T13:07:36;1.93;;;1.83;;
1328;SDS011;658;48.820;9.354;2023-06-14T13:11:37;2.20;;;2.07;;
1328;SDS011;658;48.820;9.354;2023-06-14T13:15:37;2.20;;;2.10;;
1328;SDS011;658;48.820;9.354;2023-06-14T13:19:38;2.00;;;1.90;;
1328;SDS011;658;48.820;9.354;2023-06-14T13:23:39;2.23;;;2.13;;
1328;SDS011;658;48.820;9.354;2023-06-14T13:27:42;2.37;;;2.20;;
1328;SDS011;658;48.820;9.354;2023-06-14T13:31:43;2.37;;;2.27;;
1328;SDS011;658;48.820;9.354;2023-06-14T13:35:43;2.10;;;2.00;;
1328;SDS011;658;48.820;9.354;2023-06-14T13:39:44;1.80;;;1.70;;
1328;SDS011;658;48.820;9.354;2023-06-14T13:43:44;2.60;;;2.40;;
1328;SDS011;658;48.820;9.354;2023-06-14T13:47:47;2.23;;;2.10;;
1328;SDS011;658;48.820;9.354;2023-06-14T13:51:48;1.97;;;1.87;;
1328;SDS011;658;48.820;9.354;2023-06-14T13:55:49;2.50;;;2.40;;
1328;SDS011;658;48.820;9.354;2023-06-14T13:59:49;2.37;;;2.17;;
1328;SDS011;658;48.820;9.354;2023-06-14T14:03:50;2.37;;;2.27;;
1328;SDS011;658;48.820;9.354;2023-06-14T14:07:50;2.03;;;1.93;;
1328;SDS011;658;48.820;9.354;2023-06-14T14:11:52;2.20;;;2.10;;
1328;SDS011;658;48.820;9.354;2023-06-14T14:15:53;2.00;;;1.90;;
1328;SDS011;658;48.820;9.354;2023-06-14T14:19:54;2.40;;;2.30;;
1328;SDS011;658;48.820;9.354;2023-06-14T14:23:55;2.30;;;2.20;;
1328;SDS011;658;48.820;9.354;2023-06-14T14:27:56;2.37;;;2.27;;
1328;SDS011;658;48.820;9.354;2023-06-14T14:31:56;2.00;;;1.90;;
1328;SDS011;658;48.820;9.354;2023-06-14T14:35:57;2.10;;;2.00;;
1328;SDS011;658;48.820;9.354;2023-06-14T14:39:59;2.20;;;2.10;;
1328;SDS011;658;48.820;9.354;2023-06-14T14:44:00;2.20;;;2.10;;
1328;SDS011;658;48.820;9.354;2023-06-14T14:48:01;2.37;;;2.27;;
1328;SDS011;658;48.820;9.354;2023-06-14T14:52:02;2.40;;;2.30;;
1328;SDS011;658;48.820;9.354;2023-06-14T14:56:03;1.93;;;1.83;;
1328;SDS011;658;48.820;9.354;2023-06-14T15:00:04;2.40;;;2.20;;
1328;SDS011;658;48.820;9.354;2023-06-14T15:04:05;2.37;;;2.27;;
1328;SDS011;658;48.820;9.354;2023-06-14T15:08:08;2.10;;;2.00;;
1328;SDS011;658;48.820;9.354;2023-06-14T15:12:12;2.30;;;2.20;;
1328;SDS011;658;48.820;9.354;2023-06-14T15:16:12;2.00;;;1.90;;
1328;SDS011;658;48.820;9.354;2023-06-14T15:20:13;1.80;;;1.70;;
1328;SDS011;658;48.820;9.354;2023-06-14T15:24:14;1.93;;;1.83;;
1328;SDS011;658;48.820;9.354;2023-06-14T15:28:14;2.20;;;2.00;;
1328;SDS011;658;48.820;9.354;2023-06-14T15:32:15;2.13;;;2.03;;
1328;SDS011;658;48.820;9.354;2023-06-14T15:36:15;2.23;;;2.13;;
1328;SDS011;658;48.820;9.354;2023-06-14T15:40:16;2.33;;;2.20;;
1328;SDS011;658;48.820;9.354;2023-06-14T15:44:17;2.00;;;1.90;;
1328;SDS011;658;48.820;9.354;2023-06-14T15:48:17;2.03;;;1.93;;
1328;SDS011;658;48.820;9.354;2023-06-14T15:52:18;2.17;;;2.07;;
1328;SDS011;658;48.820;9.354;2023-06-14T15:56:18;2.03;;;1.93;;
1328;SDS011;658;48.820;9.354;2023-06-14T16:00:19;2.50;;;2.30;;
1328;SDS011;658;48.820;9.354;2023-06-14T16:04:25;2.00;;;1.90;;
1328;SDS011;658;48.820;9.354;2023-06-14T16:08:25;2.33;;;2.23;;
1328;SDS011;658;48.820;9.354;2023-06-14T16:12:26;2.37;;;2.27;;
1328;SDS011;658;48.820;9.354;2023-06-14T16:16:26;2.33;;;2.13;;
1328;SDS011;658;48.820;9.354;2023-06-14T16:20:27;2.20;;;2.10;;
1328;SDS011;658;48.820;9.354;2023-06-14T16:24:28;2.30;;;2.20;;
1328;SDS011;658;48.820;9.354;2023-06-14T16:28:29;2.17;;;2.07;;
1328;SDS011;658;48.820;9.354;2023-06-14T16:32:32;2.30;;;2.10;;
1328;SDS011;658;48.820;9.354;2023-06-14T16:36:33;2.23;;;2.13;;
1328;SDS011;658;48.820;9.354;2023-06-14T16:40:33;2.03;;;1.93;;
1328;SDS011;658;48.820;9.354;2023-06-14T16:44:37;2.10;;;2.00;;
1328;SDS011;658;48.820;9.354;2023-06-14T16:48:37;3.40;;;2.00;;
1328;SDS011;658;48.820;9.354;2023-06-14T16:52:38;2.30;;;2.10;;
1328;SDS011;658;48.820;9.354;2023-06-14T16:56:41;2.77;;;2.57;;
1328;SDS011;658;48.820;9.354;2023-06-14T17:00:41;2.47;;;2.37;;
1328;SDS011;658;48.820;9.354;2023-06-14T17:04:42;3.00;;;2.80;;
1328;SDS011;658;48.820;9.354;2023-06-14T17:08:43;2.90;;;2.70;;
1328;SDS011;658;48.820;9.354;2023-06-14T17:12:44;3.20;;;3.00;;
1328;SDS011;658;48.820;9.354;2023-06-14T17:16:49;3.53;;;3.33;;
1328;SDS011;658;48.820;9.354;2023-06-14T17:20:50;3.00;;;2.80;;
1328;SDS011;658;48.820;9.354;2023-06-14T17:24:50;3.33;;;3.13;;
1328;SDS011;658;48.820;9.354;2023-06-14T17:28:51;3.30;;;3.10;;
1328;SDS011;658;48.820;9.354;2023-06-14T17:32:53;3.50;;;3.30;;
1328;SDS011;658;48.820;9.354;2023-06-14T17:36:54;4.13;;;3.73;;
1328;SDS011;658;48.820;9.354;2023-06-14T17:40:55;3.77;;;3.00;;
1328;SDS011;658;48.820;9.354;2023-06-14T17:44:55;3.20;;;3.00;;
1328;SDS011;658;48.820;9.354;2023-06-14T17:48:56;3.70;;;3.40;;
1328;SDS011;658;48.820;9.354;2023-06-14T17:52:56;3.20;;;3.00;;
1328;SDS011;658;48.820;9.354;2023-06-14T17:56:58;3.27;;;3.07;;
1328;SDS011;658;48.820;9.354;2023-06-14T18:00:59;3.27;;;2.97;;
1328;SDS011;658;48.820;9.354;2023-06-14T18:05:00;3.37;;;3.17;;
1328;SDS011;658;48.820;9.354;2023-06-14T18:09:01;3.30;;;3.00;;
1328;SDS011;658;48.820;9.354;2023-06-14T18:13:03;3.40;;;3.20;;
1328;SDS011;658;48.820;9.354;2023-06-14T18:17:04;3.77;;;3.47;;
1328;SDS011;658;48.820;9.354;2023-06-14T18:21:05;3.60;;;3.40;;
1328;SDS011;658;48.820;9.354;2023-06-14T18:25:06;4.70;;;4.20;;
1328;SDS011;658;48.820;9.354;2023-06-14T18:29:09;4.47;;;4.07;;
1328;SDS011;658;48.820;9.354;2023-06-14T18:33:12;4.70;;;4.30;;
1328;SDS011;658;48.820;9.354;2023-06-14T18:37:13;5.50;;;4.20;;
1328;SDS011;658;48.820;9.354;2023-06-14T18:41:14;4.87;;;4.40;;
1328;SDS011;658;48.820;9.354;2023-06-14T18:45:14;4.23;;;3.67;;
1328;SDS011;658;48.820;9.354;2023-06-14T18:49:15;4.90;;;4.50;;
1328;SDS011;658;48.820;9.354;2023-06-14T18:53:16;4.20;;;3.80;;
1328;SDS011;658;48.820;9.354;2023-06-14T18:57:19;4.37;;;4.07;;
1328;SDS011;658;48.820;9.354;2023-06-14T19:01:20;4.00;;;3.80;;
1328;SDS011;658;48.820;9.354;2023-06-14T19:05:21;4.50;;;4.20;;
1328;SDS011;658;48.820;9.354;2023-06-14T19:09:21;4.97;;;4.53;;
1328;SDS011;658;48.820;9.354;2023-06-14T19:13:25;4.00;;;3.70;;
1328;SDS011;658;48.820;9.354;2023-06-14T19:17:28;4.60;;;4.20;;
1328;SDS011;658;48.820;9.354;2023-06-14T19:21:29;4.70;;;4.30;;
1328;SDS011;658;48.820;9.354;2023-06-14T19:25:29;4.50;;;4.20;;
1328;SDS011;658;48.820;9.354;2023-06-14T19:29:30;4.20;;;3.90;;
1328;SDS011;658;48.820;9.354;2023-06-14T19:33:35;4.23;;;3.93;;
1328;SDS011;658;48.820;9.354;2023-06-14T19:37:36;2.90;;;2.70;;
1328;SDS011;658;48.820;9.354;2023-06-14T19:41:37;3.10;;;2.77;;
1328;SDS011;658;48.820;9.354;2023-06-14T19:45:37;5.30;;;4.60;;
1328;SDS011;658;48.820;9.354;2023-06-14T19:49:38;4.67;;;4.37;;
1328;SDS011;658;48.820;9.354;2023-06-14T19:53:39;5.20;;;4.70;;
1328;SDS011;658;48.820;9.354;2023-06-14T19:57:40;5.53;;;4.63;;
1328;SDS011;658;48.820;9.354;2023-06-14T20:01:40;5.50;;;5.00;;
1328;SDS011;658;48.820;9.354;2023-06-14T20:05:41;5.60;;;5.10;;
1328;SDS011;658;48.820;9.354;2023-06-14T20:09:42;5.43;;;5.03;;
1328;SDS011;658;48.820;9.354;2023-06-14T20:13:42;5.33;;;4.93;;
1328;SDS011;658;48.820;9.354;2023-06-14T20:17:43;5.67;;;5.17;;
1328;SDS011;658;48.820;9.354;2023-06-14T20:21:43;5.43;;;4.93;;
1328;SDS011;658;48.820;9.354;2023-06-14T20:25:44;5.47;;;4.97;;
1328;SDS011;658;48.820;9.354;2023-06-14T20:29:45;5.40;;;4.97;;
1328;SDS011;658;48.820;9.354;2023-06-14T20:33:45;5.20;;;4.70;;
1328;SDS011;658;48.820;9.354;2023-06-14T20:37:46;4.77;;;4.37;;
1328;SDS011;658;48.820;9.354;2023-06-14T20:41:47;5.40;;;5.00;;
1328;SDS011;658;48.820;9.354;2023-06-14T20:45:47;5.50;;;5.00;;
1328;SDS011;658;48.820;9.354;2023-06-14T20:49:55;5.77;;;5.17;;
1328;SDS011;658;48.820;9.354;2023-06-14T20:53:56;5.57;;;5.17;;
1328;SDS011;658;48.820;9.354;2023-06-14T20:57:56;5.53;;;5.13;;
1328;SDS011;658;48.820;9.354;2023-06-14T21:01:58;5.40;;;4.90;;
1328;SDS011;658;48.820;9.354;2023-06-14T21:05:58;5.33;;;4.93;;
1328;SDS011;658;48.820;9.354;2023-06-14T21:10:04;6.00;;;5.50;;
1328;SDS011;658;48.820;9.354;2023-06-14T21:14:05;6.03;;;5.33;;
1328;SDS011;658;48.820;9.354;2023-06-14T21:18:06;5.77;;;5.23;;
1328;SDS011;658;48.820;9.354;2023-06-14T21:22:07;6.33;;;4.67;;
1328;SDS011;658;48.820;9.354;2023-06-14T21:26:10;5.70;;;5.30;;
1328;SDS011;658;48.820;9.354;2023-06-14T21:30:14;5.97;;;5.37;;
1328;SDS011;658;48.820;9.354;2023-06-14T21:34:15;5.47;;;5.07;;
1328;SDS011;658;48.820;9.354;2023-06-14T21:38:16;5.50;;;5.00;;
1328;SDS011;658;48.820;9.354;2023-06-14T21:42:16;5.03;;;4.63;;
1328;SDS011;658;48.820;9.354;2023-06-14T21:46:17;4.53;;;4.23;;
1328;SDS011;658;48.820;9.354;2023-06-14T21:50:18;6.20;;;5.07;;
1328;SDS011;658;48.820;9.354;2023-06-14T21:54:18;4.80;;;4.40;;
1328;SDS011;658;48.820;9.354;2023-06-14T21:58:19;5.10;;;4.70;;
1328;SDS011;658;48.820;9.354;2023-06-14T22:02:20;5.20;;;4.80;;
1328;SDS011;658;48.820;9.354;2023-06-14T22:06:20;4.80;;;4.40;;
1328;SDS011;658;48.820;9.354;2023-06-14T22:10:21;5.23;;;4.77;;
1328;SDS011;658;48.820;9.354;2023-06-14T22:14:21;5.30;;;5.00;;
1328;SDS011;658;48.820;9.354;2023-06-14T22:18:22;5.47;;;5.07;;
1328;SDS011;658;48.820;9.354;2023-06-14T22:22:25;5.77;;;5.27;;
1328;SDS011;658;48.820;9.354;2023-06-14T22:26:26;5.13;;;4.67;;
1328;SDS011;658;48.820;9.354;2023-06-14T22:30:29;5.23;;;4.83;;
1328;SDS011;658;48.820;9.354;2023-06-14T22:34:30;4.90;;;4.47;;
1328;SDS011;658;48.820;9.354;2023-06-14T22:38:32;5.17;;;4.67;;
1328;SDS011;658;48.820;9.354;2023-06-14T22:42:33;6.20;;;4.63;;
1328;SDS011;658;48.820;9.354;2023-06-14T22:46:36;5.53;;;5.10;;
1328;SDS011;658;48.820;9.354;2023-06-14T22:50:42;5.60;;;5.00;;
1328;SDS011;658;48.820;9.354;2023-06-14T22:54:43;5.63;;;5.13;;
1328;SDS011;658;48.820;9.354;2023-06-14T22:58:44;5.70;;;5.13;;
1328;SDS011;658;48.820;9.354;2023-06-14T23:02:47;5.43;;;4.93;;
1328;SDS011;658;48.820;9.354;2023-06-14T23:06:48;5.50;;;5.10;;
1328;SDS011;658;48.820;9.354;2023-06-14T23:10:51;5.23;;;4.87;;
1328;SDS011;658;48.820;9.354;2023-06-14T23:14:53;4.90;;;4.60;;
1328;SDS011;658;48.820;9.354;2023-06-14T23:18:53;5.10;;;4.70;;
1328;SDS011;658;48.820;9.354;2023-06-14T23:22:54;4.67;;;4.37;;
1328;SDS011;658;48.820;9.354;2023-06-14T23:26:55;5.90;;;4.80;;
1328;SDS011;658;48.820;9.354;2023-06-14T23:30:59;4.77;;;4.37;;
1328;SDS011;658;48.820;9.354;2023-06-14T23:35:01;5.40;;;5.00;;
1328;SDS011;658;48.820;9.354;2023-06-14T23:39:03;5.00;;;4.60;;
1328;SDS011;658;48.820;9.354;2023-06-14T23:43:03;5.77;;;5.27;;
1328;SDS011;658;48.820;9.354;2023-06-14T23:47:06;5.13;;;4.80;;
1328;SDS011;658;48.820;9.354;2023-06-14T23:51:07;5.27;;;4.87;;
1328;SDS011;658;48.820;9.354;2023-06-14T23:55:08;7.43;;;5.30;;
1328;SDS011;658;48.820;9.354;2023-06-14T23:59:29;5.27;;;4.87;;
